Station Historical Data
Daily Summary for January 21, 2018 Units:  Both    English   Metric
« Previous Day
Next Day »
Daily Weekly Monthly Yearly Custom
  High: Low: Average:
Temperature: 41.4 °F /  5.2 °C 30.9 °F /  -0.6 °C 36.3 °F /  2.4 °C
Dew Point: 36.4 °F /  2.4 °C 26.5 °F /  -3.1 °C 32.4 °F /  0.2 °C
Humidity: 92% 80% 86%
Wind Speed: 5.0mph /  8km/h - 1.2mph /  1.9km/h
Wind Gust: 12.0mph /  19.3km/h - -
Wind- - SW
Pressure: 30.15 in /  1020.9 hPa 30.07 in /  1018.2 hPa -
Precipitation: 0.00 in /  0 mm    
Historical Graphs
 
 
Tabular Data for January 21, 2018
Time Temperature Dew Point Pressure Wind Wind Speed Wind Gust Humidity Rainfall Rate (Hourly)
00:04 32.9 °F /  0.5 °C 28.3 °F /  -2.1 °C 30.07in /  1018.2hPa SW 5.0mph /  8km/h 12.0mph /  19.3km/h 83% 0.00in /  0mm
00:09 32.9 °F /  0.5 °C 28.0 °F /  -2.2 °C 30.07in /  1018.2hPa SW 4.0mph /  6.4km/h 12.0mph /  19.3km/h 82% 0.00in /  0mm
00:14 32.8 °F /  0.4 °C 27.9 °F /  -2.3 °C 30.07in /  1018.2hPa SW 4.0mph /  6.4km/h 8.0mph /  12.9km/h 82% 0.00in /  0mm
00:19 32.9 °F /  0.5 °C 28.0 °F /  -2.2 °C 30.08in /  1018.5hPa WSW 4.0mph /  6.4km/h 8.0mph /  12.9km/h 82% 0.00in /  0mm
00:24 33.0 °F /  0.6 °C 28.1 °F /  -2.2 °C 30.08in /  1018.5hPa WSW 3.0mph /  4.8km/h 7.0mph /  11.3km/h 82% 0.00in /  0mm
00:29 33.0 °F /  0.6 °C 28.1 °F /  -2.2 °C 30.08in /  1018.5hPa WSW 3.0mph /  4.8km/h 7.0mph /  11.3km/h 82% 0.00in /  0mm
00:34 32.9 °F /  0.5 °C 28.0 °F /  -2.2 °C 30.08in /  1018.5hPa WSW 3.0mph /  4.8km/h 7.0mph /  11.3km/h 82% 0.00in /  0mm
00:44 32.8 °F /  0.4 °C 27.9 °F /  -2.3 °C 30.08in /  1018.5hPa WSW 3.0mph /  4.8km/h 7.0mph /  11.3km/h 82% 0.00in /  0mm
00:49 32.9 °F /  0.5 °C 28.0 °F /  -2.2 °C 30.09in /  1018.8hPa WSW 2.0mph /  3.2km/h 7.0mph /  11.3km/h 82% 0.00in /  0mm
00:54 32.9 °F /  0.5 °C 28.0 °F /  -2.2 °C 30.09in /  1018.8hPa WSW 2.0mph /  3.2km/h 6.0mph /  9.7km/h 82% 0.00in /  0mm
00:59 32.9 °F /  0.5 °C 28.0 °F /  -2.2 °C 30.08in /  1018.5hPa SW 4.0mph /  6.4km/h 6.0mph /  9.7km/h 82% 0.00in /  0mm
01:05 33.0 °F /  0.6 °C 28.1 °F /  -2.2 °C 30.09in /  1018.8hPa WSW 4.0mph /  6.4km/h 9.0mph /  14.5km/h 82% 0.00in /  0mm
01:10 33.1 °F /  0.6 °C 28.2 °F /  -2.1 °C 30.09in /  1018.8hPa WSW 3.0mph /  4.8km/h 6.0mph /  9.7km/h 82% 0.00in /  0mm
01:15 33.3 °F /  0.7 °C 28.4 °F /  -2 °C 30.09in /  1018.8hPa WSW 4.0mph /  6.4km/h 9.0mph /  14.5km/h 82% 0.00in /  0mm
01:20 33.4 °F /  0.8 °C 28.5 °F /  -1.9 °C 30.09in /  1018.8hPa WSW 5.0mph /  8km/h 11.0mph /  17.7km/h 82% 0.00in /  0mm
01:25 33.5 °F /  0.8 °C 28.3 °F /  -2.1 °C 30.09in /  1018.8hPa WSW 5.0mph /  8km/h 11.0mph /  17.7km/h 81% 0.00in /  0mm
01:30 33.5 °F /  0.8 °C 28.3 °F /  -2.1 °C 30.09in /  1018.8hPa WSW 4.0mph /  6.4km/h 11.0mph /  17.7km/h 81% 0.00in /  0mm
01:35 33.4 °F /  0.8 °C 28.2 °F /  -2.1 °C 30.09in /  1018.8hPa WSW 4.0mph /  6.4km/h 7.0mph /  11.3km/h 81% 0.00in /  0mm
01:40 33.1 °F /  0.6 °C 27.9 °F /  -2.3 °C 30.08in /  1018.5hPa WSW 5.0mph /  8km/h 8.0mph /  12.9km/h 81% 0.00in /  0mm
01:45 33.1 °F /  0.6 °C 27.9 °F /  -2.3 °C 30.08in /  1018.5hPa WSW 3.0mph /  4.8km/h 9.0mph /  14.5km/h 81% 0.00in /  0mm
01:55 33.0 °F /  0.6 °C 27.8 °F /  -2.3 °C 30.08in /  1018.5hPa WSW 3.0mph /  4.8km/h 8.0mph /  12.9km/h 81% 0.00in /  0mm
02:00 33.0 °F /  0.6 °C 27.8 °F /  -2.3 °C 30.08in /  1018.5hPa WSW 3.0mph /  4.8km/h 6.0mph /  9.7km/h 81% 0.00in /  0mm
02:05 33.0 °F /  0.6 °C 27.8 °F /  -2.3 °C 30.08in /  1018.5hPa SW 4.0mph /  6.4km/h 6.0mph /  9.7km/h 81% 0.00in /  0mm
02:10 33.0 °F /  0.6 °C 27.8 °F /  -2.3 °C 30.09in /  1018.8hPa SW 3.0mph /  4.8km/h 6.0mph /  9.7km/h 81% 0.00in /  0mm
02:15 32.7 °F /  0.4 °C 27.5 °F /  -2.5 °C 30.09in /  1018.8hPa SW 2.0mph /  3.2km/h 4.0mph /  6.4km/h 81% 0.00in /  0mm
02:20 32.5 °F /  0.3 °C 27.3 °F /  -2.6 °C 30.10in /  1019.2hPa SW 3.0mph /  4.8km/h 4.0mph /  6.4km/h 81% 0.00in /  0mm
02:30 32.3 °F /  0.2 °C 27.1 °F /  -2.7 °C 30.10in /  1019.2hPa SW 2.0mph /  3.2km/h 5.0mph /  8km/h 81% 0.00in /  0mm
02:35 32.1 °F /  0.1 °C 26.6 °F /  -3 °C 30.11in /  1019.5hPa SW 2.0mph /  3.2km/h 5.0mph /  8km/h 80% 0.00in /  0mm
02:40 32.1 °F /  0.1 °C 26.9 °F /  -2.8 °C 30.11in /  1019.5hPa WSW 1.0mph /  1.6km/h 6.0mph /  9.7km/h 81% 0.00in /  0mm
02:50 32.4 °F /  0.2 °C 27.2 °F /  -2.7 °C 30.12in /  1019.9hPa WSW 3.0mph /  4.8km/h 5.0mph /  8km/h 81% 0.00in /  0mm
03:00 32.8 °F /  0.4 °C 27.6 °F /  -2.4 °C 30.12in /  1019.9hPa WSW 4.0mph /  6.4km/h 6.0mph /  9.7km/h 81% 0.00in /  0mm
03:10 32.7 °F /  0.4 °C 27.5 °F /  -2.5 °C 30.12in /  1019.9hPa WSW 4.0mph /  6.4km/h 7.0mph /  11.3km/h 81% 0.00in /  0mm
03:15 32.8 °F /  0.4 °C 27.6 °F /  -2.4 °C 30.12in /  1019.9hPa WSW 4.0mph /  6.4km/h 6.0mph /  9.7km/h 81% 0.00in /  0mm
03:20 32.6 °F /  0.3 °C 27.4 °F /  -2.6 °C 30.11in /  1019.5hPa WSW 2.0mph /  3.2km/h 5.0mph /  8km/h 81% 0.00in /  0mm
03:25 32.4 °F /  0.2 °C 27.2 °F /  -2.7 °C 30.11in /  1019.5hPa WSW 2.0mph /  3.2km/h 5.0mph /  8km/h 81% 0.00in /  0mm
03:30 32.0 °F /  0 °C 26.8 °F /  -2.9 °C 30.11in /  1019.5hPa WSW 2.0mph /  3.2km/h 4.0mph /  6.4km/h 81% 0.00in /  0mm
03:35 31.7 °F /  -0.2 °C 26.8 °F /  -2.9 °C 30.11in /  1019.5hPa WSW 2.0mph /  3.2km/h 4.0mph /  6.4km/h 82% 0.00in /  0mm
03:40 31.5 °F /  -0.3 °C 26.6 °F /  -3 °C 30.11in /  1019.5hPa WSW 2.0mph /  3.2km/h 4.0mph /  6.4km/h 82% 0.00in /  0mm
03:45 31.5 °F /  -0.3 °C 26.6 °F /  -3 °C 30.11in /  1019.5hPa SW 2.0mph /  3.2km/h 7.0mph /  11.3km/h 82% 0.00in /  0mm
03:50 31.5 °F /  -0.3 °C 26.6 °F /  -3 °C 30.11in /  1019.5hPa SW 2.0mph /  3.2km/h 5.0mph /  8km/h 82% 0.00in /  0mm
03:55 31.5 °F /  -0.3 °C 26.9 °F /  -2.8 °C 30.11in /  1019.5hPa SW 3.0mph /  4.8km/h 4.0mph /  6.4km/h 83% 0.00in /  0mm
04:00 31.5 °F /  -0.3 °C 26.9 °F /  -2.8 °C 30.11in /  1019.5hPa SW 2.0mph /  3.2km/h 4.0mph /  6.4km/h 83% 0.00in /  0mm
04:05 31.4 °F /  -0.3 °C 26.8 °F /  -2.9 °C 30.10in /  1019.2hPa SW 2.0mph /  3.2km/h 5.0mph /  8km/h 83% 0.00in /  0mm
04:10 31.2 °F /  -0.4 °C 26.6 °F /  -3 °C 30.10in /  1019.2hPa SW 2.0mph /  3.2km/h 5.0mph /  8km/h 83% 0.00in /  0mm
04:15 31.1 °F /  -0.5 °C 26.5 °F /  -3.1 °C 30.10in /  1019.2hPa SW 2.0mph /  3.2km/h 4.0mph /  6.4km/h 83% 0.00in /  0mm
04:20 31.1 °F /  -0.5 °C 26.5 °F /  -3.1 °C 30.10in /  1019.2hPa SW 2.0mph /  3.2km/h 5.0mph /  8km/h 83% 0.00in /  0mm
04:25 31.1 °F /  -0.5 °C 26.8 °F /  -2.9 °C 30.10in /  1019.2hPa Calm   3.0mph /  4.8km/h 84% 0.00in /  0mm
04:29 31.1 °F /  -0.5 °C 26.8 °F /  -2.9 °C 30.10in /  1019.2hPa SW 1.0mph /  1.6km/h 4.0mph /  6.4km/h 84% 0.00in /  0mm
04:35 31.2 °F /  -0.4 °C 26.9 °F /  -2.8 °C 30.10in /  1019.2hPa SW 1.0mph /  1.6km/h 4.0mph /  6.4km/h 84% 0.00in /  0mm
04:40 31.3 °F /  -0.4 °C 27.0 °F /  -2.8 °C 30.10in /  1019.2hPa SW 2.0mph /  3.2km/h 5.0mph /  8km/h 84% 0.00in /  0mm
04:45 31.1 °F /  -0.5 °C 26.8 °F /  -2.9 °C 30.11in /  1019.5hPa SW 1.0mph /  1.6km/h 5.0mph /  8km/h 84% 0.00in /  0mm
04:50 31.1 °F /  -0.5 °C 27.1 °F /  -2.7 °C 30.11in /  1019.5hPa SW 1.0mph /  1.6km/h 3.0mph /  4.8km/h 85% 0.00in /  0mm
04:55 31.0 °F /  -0.6 °C 27.0 °F /  -2.8 °C 30.11in /  1019.5hPa SW 2.0mph /  3.2km/h 4.0mph /  6.4km/h 85% 0.00in /  0mm
04:59 30.9 °F /  -0.6 °C 26.9 °F /  -2.8 °C 30.11in /  1019.5hPa SW 2.0mph /  3.2km/h 4.0mph /  6.4km/h 85% 0.00in /  0mm
05:05 31.0 °F /  -0.6 °C 27.0 °F /  -2.8 °C 30.12in /  1019.9hPa SW 2.0mph /  3.2km/h 4.0mph /  6.4km/h 85% 0.00in /  0mm
05:09 31.2 °F /  -0.4 °C 27.5 °F /  -2.5 °C 30.12in /  1019.9hPa SW 3.0mph /  4.8km/h 6.0mph /  9.7km/h 86% 0.00in /  0mm
05:14 31.3 °F /  -0.4 °C 27.6 °F /  -2.4 °C 30.12in /  1019.9hPa SW 2.0mph /  3.2km/h 4.0mph /  6.4km/h 86% 0.00in /  0mm
05:20 31.4 °F /  -0.3 °C 27.7 °F /  -2.4 °C 30.11in /  1019.5hPa SW 4.0mph /  6.4km/h 5.0mph /  8km/h 86% 0.00in /  0mm
05:25 31.5 °F /  -0.3 °C 27.8 °F /  -2.3 °C 30.12in /  1019.9hPa SW 1.0mph /  1.6km/h 5.0mph /  8km/h 86% 0.00in /  0mm
05:30 31.3 °F /  -0.4 °C 27.6 °F /  -2.4 °C 30.12in /  1019.9hPa SW 2.0mph /  3.2km/h 3.0mph /  4.8km/h 86% 0.00in /  0mm
05:34 31.3 °F /  -0.4 °C 27.6 °F /  -2.4 °C 30.11in /  1019.5hPa SW 1.0mph /  1.6km/h 3.0mph /  4.8km/h 86% 0.00in /  0mm
05:40 31.2 °F /  -0.4 °C 27.5 °F /  -2.5 °C 30.11in /  1019.5hPa SW 1.0mph /  1.6km/h 4.0mph /  6.4km/h 86% 0.00in /  0mm
05:45 31.3 °F /  -0.4 °C 27.9 °F /  -2.3 °C 30.12in /  1019.9hPa SW 2.0mph /  3.2km/h 6.0mph /  9.7km/h 87% 0.00in /  0mm
05:50 31.5 °F /  -0.3 °C 28.1 °F /  -2.2 °C 30.12in /  1019.9hPa SW 2.0mph /  3.2km/h 6.0mph /  9.7km/h 87% 0.00in /  0mm
05:55 31.8 °F /  -0.1 °C 28.4 °F /  -2 °C 30.12in /  1019.9hPa SW 2.0mph /  3.2km/h 6.0mph /  9.7km/h 87% 0.00in /  0mm
06:00 32.0 °F /  0 °C 28.6 °F /  -1.9 °C 30.11in /  1019.5hPa Calm   5.0mph /  8km/h 87% 0.00in /  0mm
06:05 32.2 °F /  0.1 °C 28.8 °F /  -1.8 °C 30.12in /  1019.9hPa SW 2.0mph /  3.2km/h 6.0mph /  9.7km/h 87% 0.00in /  0mm
06:09 32.2 °F /  0.1 °C 28.8 °F /  -1.8 °C 30.12in /  1019.9hPa SW 2.0mph /  3.2km/h 6.0mph /  9.7km/h 87% 0.00in /  0mm
06:14 32.2 °F /  0.1 °C 28.8 °F /  -1.8 °C 30.12in /  1019.9hPa Calm   4.0mph /  6.4km/h 87% 0.00in /  0mm
06:19 32.2 °F /  0.1 °C 28.8 °F /  -1.8 °C 30.12in /  1019.9hPa SW 1.0mph /  1.6km/h 5.0mph /  8km/h 87% 0.00in /  0mm
06:24 32.4 °F /  0.2 °C 29.2 °F /  -1.6 °C 30.13in /  1020.2hPa Calm   5.0mph /  8km/h 88% 0.00in /  0mm
06:30 32.3 °F /  0.2 °C 29.1 °F /  -1.6 °C 30.13in /  1020.2hPa Calm   5.0mph /  8km/h 88% 0.00in /  0mm
06:35 32.3 °F /  0.2 °C 29.1 °F /  -1.6 °C 30.13in /  1020.2hPa Calm   4.0mph /  6.4km/h 88% 0.00in /  0mm
06:40 32.4 °F /  0.2 °C 29.2 °F /  -1.6 °C 30.13in /  1020.2hPa SW 2.0mph /  3.2km/h 5.0mph /  8km/h 88% 0.00in /  0mm
06:44 32.3 °F /  0.2 °C 29.1 °F /  -1.6 °C 30.13in /  1020.2hPa SW 2.0mph /  3.2km/h 5.0mph /  8km/h 88% 0.00in /  0mm
06:50 32.4 °F /  0.2 °C 29.2 °F /  -1.6 °C 30.13in /  1020.2hPa SW 2.0mph /  3.2km/h 7.0mph /  11.3km/h 88% 0.00in /  0mm
06:55 32.5 °F /  0.3 °C 29.3 °F /  -1.5 °C 30.13in /  1020.2hPa SW 2.0mph /  3.2km/h 7.0mph /  11.3km/h 88% 0.00in /  0mm
07:00 32.5 °F /  0.3 °C 29.3 °F /  -1.5 °C 30.13in /  1020.2hPa SW 2.0mph /  3.2km/h 4.0mph /  6.4km/h 88% 0.00in /  0mm
07:05 32.3 °F /  0.2 °C 29.1 °F /  -1.6 °C 30.13in /  1020.2hPa SW 2.0mph /  3.2km/h 4.0mph /  6.4km/h 88% 0.00in /  0mm
07:10 32.0 °F /  0 °C 28.8 °F /  -1.8 °C 30.14in /  1020.5hPa SW 1.0mph /  1.6km/h 4.0mph /  6.4km/h 88% 0.00in /  0mm
07:14 31.8 °F /  -0.1 °C 28.7 °F /  -1.8 °C 30.14in /  1020.5hPa Calm   4.0mph /  6.4km/h 88% 0.00in /  0mm
07:19 31.8 °F /  -0.1 °C 28.7 °F /  -1.8 °C 30.13in /  1020.2hPa Calm   3.0mph /  4.8km/h 88% 0.00in /  0mm
07:24 31.7 °F /  -0.2 °C 28.6 °F /  -1.9 °C 30.13in /  1020.2hPa SW 2.0mph /  3.2km/h 2.0mph /  3.2km/h 88% 0.00in /  0mm
07:29 31.4 °F /  -0.3 °C 28.3 °F /  -2.1 °C 30.14in /  1020.5hPa Calm   3.0mph /  4.8km/h 88% 0.00in /  0mm
07:35 31.1 °F /  -0.5 °C 28.0 °F /  -2.2 °C 30.14in /  1020.5hPa Calm     88% 0.00in /  0mm
07:40 31.0 °F /  -0.6 °C 27.9 °F /  -2.3 °C 30.14in /  1020.5hPa Calm     88% 0.00in /  0mm
07:45 31.1 °F /  -0.5 °C 28.2 °F /  -2.1 °C 30.14in /  1020.5hPa SW 1.0mph /  1.6km/h 3.0mph /  4.8km/h 89% 0.00in /  0mm
07:49 31.6 °F /  -0.2 °C 28.7 °F /  -1.8 °C 30.14in /  1020.5hPa SW 1.0mph /  1.6km/h 5.0mph /  8km/h 89% 0.00in /  0mm
07:54 32.0 °F /  0 °C 29.1 °F /  -1.6 °C 30.14in /  1020.5hPa SW 2.0mph /  3.2km/h 5.0mph /  8km/h 89% 0.00in /  0mm
08:00 32.4 °F /  0.2 °C 29.5 °F /  -1.4 °C 30.14in /  1020.5hPa SW 2.0mph /  3.2km/h 6.0mph /  9.7km/h 89% 0.00in /  0mm
08:05 32.6 °F /  0.3 °C 29.7 °F /  -1.3 °C 30.14in /  1020.5hPa SW 3.0mph /  4.8km/h 6.0mph /  9.7km/h 89% 0.00in /  0mm
08:10 32.7 °F /  0.4 °C 29.8 °F /  -1.2 °C 30.14in /  1020.5hPa SW 2.0mph /  3.2km/h 5.0mph /  8km/h 89% 0.00in /  0mm
08:14 32.8 °F /  0.4 °C 30.2 °F /  -1 °C 30.14in /  1020.5hPa SW 2.0mph /  3.2km/h 6.0mph /  9.7km/h 90% 0.00in /  0mm
08:19 33.0 °F /  0.6 °C 30.4 °F /  -0.9 °C 30.14in /  1020.5hPa SW 1.0mph /  1.6km/h 6.0mph /  9.7km/h 90% 0.00in /  0mm
08:24 33.2 °F /  0.7 °C 30.6 °F /  -0.8 °C 30.14in /  1020.5hPa SW 3.0mph /  4.8km/h 6.0mph /  9.7km/h 90% 0.00in /  0mm
08:29 33.4 °F /  0.8 °C 30.8 °F /  -0.7 °C 30.14in /  1020.5hPa Calm   5.0mph /  8km/h 90% 0.00in /  0mm
08:34 33.5 °F /  0.8 °C 30.9 °F /  -0.6 °C 30.14in /  1020.5hPa SW 4.0mph /  6.4km/h 4.0mph /  6.4km/h 90% 0.00in /  0mm
08:40 33.8 °F /  1 °C 31.2 °F /  -0.4 °C 30.14in /  1020.5hPa SW 3.0mph /  4.8km/h 8.0mph /  12.9km/h 90% 0.00in /  0mm
08:45 34.0 °F /  1.1 °C 31.1 °F /  -0.5 °C 30.14in /  1020.5hPa SSW 4.0mph /  6.4km/h 5.0mph /  8km/h 89% 0.00in /  0mm
08:50 34.2 °F /  1.2 °C 31.6 °F /  -0.2 °C 30.14in /  1020.5hPa SW 3.0mph /  4.8km/h 6.0mph /  9.7km/h 90% 0.00in /  0mm
08:54 34.4 °F /  1.3 °C 31.8 °F /  -0.1 °C 30.14in /  1020.5hPa SW 2.0mph /  3.2km/h 6.0mph /  9.7km/h 90% 0.00in /  0mm
08:59 34.5 °F /  1.4 °C 31.9 °F /  -0.1 °C 30.14in /  1020.5hPa SW 2.0mph /  3.2km/h 6.0mph /  9.7km/h 90% 0.00in /  0mm
09:04 34.8 °F /  1.6 °C 31.9 °F /  -0.1 °C 30.15in /  1020.9hPa SW 2.0mph /  3.2km/h 5.0mph /  8km/h 89% 0.00in /  0mm
09:10 34.9 °F /  1.6 °C 32.3 °F /  0.2 °C 30.15in /  1020.9hPa SW 2.0mph /  3.2km/h 5.0mph /  8km/h 90% 0.00in /  0mm
09:15 35.3 °F /  1.8 °C 32.7 °F /  0.4 °C 30.15in /  1020.9hPa SW 1.0mph /  1.6km/h 3.0mph /  4.8km/h 90% 0.00in /  0mm
09:20 35.6 °F /  2 °C 33.0 °F /  0.6 °C 30.15in /  1020.9hPa SW 1.0mph /  1.6km/h 3.0mph /  4.8km/h 90% 0.00in /  0mm
09:25 35.9 °F /  2.2 °C 33.0 °F /  0.6 °C 30.15in /  1020.9hPa SW 1.0mph /  1.6km/h 4.0mph /  6.4km/h 89% 0.00in /  0mm
09:29 36.1 °F /  2.3 °C 33.2 °F /  0.7 °C 30.15in /  1020.9hPa SW 1.0mph /  1.6km/h 4.0mph /  6.4km/h 89% 0.00in /  0mm
09:34 36.3 °F /  2.4 °C 33.4 °F /  0.8 °C 30.15in /  1020.9hPa SW 1.0mph /  1.6km/h 3.0mph /  4.8km/h 89% 0.00in /  0mm
09:39 36.6 °F /  2.6 °C 33.7 °F /  0.9 °C 30.15in /  1020.9hPa Calm   2.0mph /  3.2km/h 89% 0.00in /  0mm
09:44 36.8 °F /  2.7 °C 33.9 °F /  1.1 °C 30.15in /  1020.9hPa Calm   4.0mph /  6.4km/h 89% 0.00in /  0mm
09:49 37.0 °F /  2.8 °C 34.1 °F /  1.2 °C 30.15in /  1020.9hPa Calm     89% 0.00in /  0mm
09:55 37.1 °F /  2.8 °C 33.9 °F /  1.1 °C 30.15in /  1020.9hPa Calm     88% 0.00in /  0mm
10:00 37.3 °F /  2.9 °C 34.1 °F /  1.2 °C 30.15in /  1020.9hPa SW 1.0mph /  1.6km/h 4.0mph /  6.4km/h 88% 0.00in /  0mm
10:04 37.6 °F /  3.1 °C 34.4 °F /  1.3 °C 30.15in /  1020.9hPa SW 2.0mph /  3.2km/h 4.0mph /  6.4km/h 88% 0.00in /  0mm
10:09 37.7 °F /  3.2 °C 34.5 °F /  1.4 °C 30.15in /  1020.9hPa SW 1.0mph /  1.6km/h 3.0mph /  4.8km/h 88% 0.00in /  0mm
10:14 37.9 °F /  3.3 °C 34.4 °F /  1.3 °C 30.15in /  1020.9hPa SW 2.0mph /  3.2km/h 4.0mph /  6.4km/h 87% 0.00in /  0mm
10:20 38.1 °F /  3.4 °C 34.6 °F /  1.4 °C 30.15in /  1020.9hPa SW 3.0mph /  4.8km/h 6.0mph /  9.7km/h 87% 0.00in /  0mm
10:25 38.2 °F /  3.4 °C 34.7 °F /  1.5 °C 30.15in /  1020.9hPa SW 2.0mph /  3.2km/h 6.0mph /  9.7km/h 87% 0.00in /  0mm
10:30 38.4 °F /  3.6 °C 34.9 °F /  1.6 °C 30.15in /  1020.9hPa SW 2.0mph /  3.2km/h 5.0mph /  8km/h 87% 0.00in /  0mm
10:34 38.4 °F /  3.6 °C 34.6 °F /  1.4 °C 30.15in /  1020.9hPa SW 3.0mph /  4.8km/h 6.0mph /  9.7km/h 86% 0.00in /  0mm
10:39 38.5 °F /  3.6 °C 34.7 °F /  1.5 °C 30.14in /  1020.5hPa SW 3.0mph /  4.8km/h 6.0mph /  9.7km/h 86% 0.00in /  0mm
10:44 38.6 °F /  3.7 °C 34.8 °F /  1.6 °C 30.14in /  1020.5hPa SW 1.0mph /  1.6km/h 4.0mph /  6.4km/h 86% 0.00in /  0mm
10:49 38.7 °F /  3.7 °C 34.6 °F /  1.4 °C 30.14in /  1020.5hPa SW 2.0mph /  3.2km/h 4.0mph /  6.4km/h 85% 0.00in /  0mm
10:54 38.8 °F /  3.8 °C 34.7 °F /  1.5 °C 30.14in /  1020.5hPa Calm   4.0mph /  6.4km/h 85% 0.00in /  0mm
10:59 38.8 °F /  3.8 °C 34.7 °F /  1.5 °C 30.14in /  1020.5hPa Calm   5.0mph /  8km/h 85% 0.00in /  0mm
11:04 38.9 °F /  3.8 °C 34.8 °F /  1.6 °C 30.14in /  1020.5hPa SW 2.0mph /  3.2km/h 4.0mph /  6.4km/h 85% 0.00in /  0mm
11:09 39.0 °F /  3.9 °C 34.9 °F /  1.6 °C 30.14in /  1020.5hPa SW 2.0mph /  3.2km/h 5.0mph /  8km/h 85% 0.00in /  0mm
11:14 39.3 °F /  4.1 °C 34.9 °F /  1.6 °C 30.14in /  1020.5hPa SW 2.0mph /  3.2km/h 5.0mph /  8km/h 84% 0.00in /  0mm
11:19 39.4 °F /  4.1 °C 35.0 °F /  1.7 °C 30.14in /  1020.5hPa SSW 2.0mph /  3.2km/h 5.0mph /  8km/h 84% 0.00in /  0mm
11:24 39.4 °F /  4.1 °C 35.0 °F /  1.7 °C 30.13in /  1020.2hPa SSW 1.0mph /  1.6km/h 4.0mph /  6.4km/h 84% 0.00in /  0mm
11:30 39.4 °F /  4.1 °C 35.0 °F /  1.7 °C 30.13in /  1020.2hPa Calm   3.0mph /  4.8km/h 84% 0.00in /  0mm
11:35 39.5 °F /  4.2 °C 35.1 °F /  1.7 °C 30.13in /  1020.2hPa Calm   4.0mph /  6.4km/h 84% 0.00in /  0mm
11:39 39.4 °F /  4.1 °C 35.0 °F /  1.7 °C 30.13in /  1020.2hPa SSW 2.0mph /  3.2km/h 4.0mph /  6.4km/h 84% 0.00in /  0mm
11:44 39.4 °F /  4.1 °C 35.0 °F /  1.7 °C 30.12in /  1019.9hPa SSW 1.0mph /  1.6km/h 4.0mph /  6.4km/h 84% 0.00in /  0mm
11:49 39.4 °F /  4.1 °C 35.0 °F /  1.7 °C 30.12in /  1019.9hPa Calm     84% 0.00in /  0mm
11:54 39.4 °F /  4.1 °C 35.0 °F /  1.7 °C 30.12in /  1019.9hPa Calm   2.0mph /  3.2km/h 84% 0.00in /  0mm
11:59 39.5 °F /  4.2 °C 35.1 °F /  1.7 °C 30.12in /  1019.9hPa Calm   2.0mph /  3.2km/h 84% 0.00in /  0mm
12:04 39.5 °F /  4.2 °C 35.1 °F /  1.7 °C 30.12in /  1019.9hPa Calm   2.0mph /  3.2km/h 84% 0.00in /  0mm
12:09 39.6 °F /  4.2 °C 34.9 °F /  1.6 °C 30.12in /  1019.9hPa Calm     83% 0.00in /  0mm
12:15 39.7 °F /  4.3 °C 35.3 °F /  1.8 °C 30.11in /  1019.5hPa SSW 2.0mph /  3.2km/h 3.0mph /  4.8km/h 84% 0.00in /  0mm
12:19 39.9 °F /  4.4 °C 35.2 °F /  1.8 °C 30.12in /  1019.9hPa SSW 1.0mph /  1.6km/h 4.0mph /  6.4km/h 83% 0.00in /  0mm
12:24 40.0 °F /  4.4 °C 35.3 °F /  1.8 °C 30.12in /  1019.9hPa SSW 2.0mph /  3.2km/h 4.0mph /  6.4km/h 83% 0.00in /  0mm
12:29 40.0 °F /  4.4 °C 35.3 °F /  1.8 °C 30.11in /  1019.5hPa SW 2.0mph /  3.2km/h 4.0mph /  6.4km/h 83% 0.00in /  0mm
12:34 40.1 °F /  4.5 °C 35.4 °F /  1.9 °C 30.11in /  1019.5hPa SW 2.0mph /  3.2km/h 4.0mph /  6.4km/h 83% 0.00in /  0mm
12:40 40.2 °F /  4.6 °C 35.4 °F /  1.9 °C 30.11in /  1019.5hPa SW 2.0mph /  3.2km/h 6.0mph /  9.7km/h 83% 0.00in /  0mm
12:45 40.2 °F /  4.6 °C 35.4 °F /  1.9 °C 30.10in /  1019.2hPa Calm   6.0mph /  9.7km/h 83% 0.00in /  0mm
12:49 40.3 °F /  4.6 °C 35.5 °F /  1.9 °C 30.10in /  1019.2hPa SW 2.0mph /  3.2km/h 6.0mph /  9.7km/h 83% 0.00in /  0mm
12:54 40.3 °F /  4.6 °C 35.5 °F /  1.9 °C 30.10in /  1019.2hPa SW 2.0mph /  3.2km/h 4.0mph /  6.4km/h 83% 0.00in /  0mm
12:59 40.4 °F /  4.7 °C 35.6 °F /  2 °C 30.10in /  1019.2hPa SW 2.0mph /  3.2km/h 5.0mph /  8km/h 83% 0.00in /  0mm
13:04 40.3 °F /  4.6 °C 35.5 °F /  1.9 °C 30.10in /  1019.2hPa Calm   3.0mph /  4.8km/h 83% 0.00in /  0mm
13:09 40.4 °F /  4.7 °C 35.9 °F /  2.2 °C 30.09in /  1018.8hPa SW 1.0mph /  1.6km/h 4.0mph /  6.4km/h 84% 0.00in /  0mm
13:14 40.7 °F /  4.8 °C 35.9 °F /  2.2 °C 30.09in /  1018.8hPa SW 1.0mph /  1.6km/h 4.0mph /  6.4km/h 83% 0.00in /  0mm
13:19 40.9 °F /  4.9 °C 36.1 °F /  2.3 °C 30.09in /  1018.8hPa Calm   3.0mph /  4.8km/h 83% 0.00in /  0mm
13:24 41.2 °F /  5.1 °C 36.4 °F /  2.4 °C 30.08in /  1018.5hPa SW 1.0mph /  1.6km/h 5.0mph /  8km/h 83% 0.00in /  0mm
13:29 41.3 °F /  5.2 °C 36.2 °F /  2.3 °C 30.08in /  1018.5hPa SW 1.0mph /  1.6km/h 5.0mph /  8km/h 82% 0.00in /  0mm
13:34 41.4 °F /  5.2 °C 36.3 °F /  2.4 °C 30.09in /  1018.8hPa SW 4.0mph /  6.4km/h 5.0mph /  8km/h 82% 0.00in /  0mm
13:39 41.3 °F /  5.2 °C 36.2 °F /  2.3 °C 30.08in /  1018.5hPa SW 1.0mph /  1.6km/h 4.0mph /  6.4km/h 82% 0.00in /  0mm
13:44 41.1 °F /  5.1 °C 36.0 °F /  2.2 °C 30.08in /  1018.5hPa SW 2.0mph /  3.2km/h 5.0mph /  8km/h 82% 0.00in /  0mm
13:49 40.9 °F /  4.9 °C 35.8 °F /  2.1 °C 30.08in /  1018.5hPa SW 2.0mph /  3.2km/h 4.0mph /  6.4km/h 82% 0.00in /  0mm
13:54 40.9 °F /  4.9 °C 35.8 °F /  2.1 °C 30.08in /  1018.5hPa SW 2.0mph /  3.2km/h 4.0mph /  6.4km/h 82% 0.00in /  0mm
13:59 40.9 °F /  4.9 °C 35.8 °F /  2.1 °C 30.08in /  1018.5hPa SW 2.0mph /  3.2km/h 4.0mph /  6.4km/h 82% 0.00in /  0mm
14:04 40.9 °F /  4.9 °C 35.8 °F /  2.1 °C 30.08in /  1018.5hPa SW 1.0mph /  1.6km/h 3.0mph /  4.8km/h 82% 0.00in /  0mm
14:09 41.0 °F /  5 °C 35.9 °F /  2.2 °C 30.08in /  1018.5hPa SW 1.0mph /  1.6km/h 3.0mph /  4.8km/h 82% 0.00in /  0mm
14:15 40.9 °F /  4.9 °C 35.8 °F /  2.1 °C 30.08in /  1018.5hPa SW 1.0mph /  1.6km/h 3.0mph /  4.8km/h 82% 0.00in /  0mm
14:20 40.8 °F /  4.9 °C 35.7 °F /  2.1 °C 30.08in /  1018.5hPa SW 1.0mph /  1.6km/h 2.0mph /  3.2km/h 82% 0.00in /  0mm
14:24 40.8 °F /  4.9 °C 35.7 °F /  2.1 °C 30.08in /  1018.5hPa Calm   2.0mph /  3.2km/h 82% 0.00in /  0mm
14:29 40.7 °F /  4.8 °C 35.6 °F /  2 °C 30.08in /  1018.5hPa Calm     82% 0.00in /  0mm
14:34 40.9 °F /  4.9 °C 35.8 °F /  2.1 °C 30.08in /  1018.5hPa Calm   1.0mph /  1.6km/h 82% 0.00in /  0mm
14:39 40.9 °F /  4.9 °C 35.8 °F /  2.1 °C 30.07in /  1018.2hPa Calm     82% 0.00in /  0mm
14:44 40.9 °F /  4.9 °C 35.8 °F /  2.1 °C 30.08in /  1018.5hPa Calm     82% 0.00in /  0mm
14:49 41.0 °F /  5 °C 35.9 °F /  2.2 °C 30.07in /  1018.2hPa Calm     82% 0.00in /  0mm
14:54 40.8 °F /  4.9 °C 35.7 °F /  2.1 °C 30.07in /  1018.2hPa Calm     82% 0.00in /  0mm
14:59 40.9 °F /  4.9 °C 35.8 °F /  2.1 °C 30.07in /  1018.2hPa Calm     82% 0.00in /  0mm
15:04 40.9 °F /  4.9 °C 35.8 °F /  2.1 °C 30.07in /  1018.2hPa Calm     82% 0.00in /  0mm
15:09 40.9 °F /  4.9 °C 35.8 °F /  2.1 °C 30.07in /  1018.2hPa Calm     82% 0.00in /  0mm
15:14 41.1 °F /  5.1 °C 36.0 °F /  2.2 °C 30.07in /  1018.2hPa Calm     82% 0.00in /  0mm
15:24 41.0 °F /  5 °C 35.9 °F /  2.2 °C 30.07in /  1018.2hPa Calm   2.0mph /  3.2km/h 82% 0.00in /  0mm
15:29 40.9 °F /  4.9 °C 35.8 °F /  2.1 °C 30.07in /  1018.2hPa Calm   1.0mph /  1.6km/h 82% 0.00in /  0mm
15:34 40.8 °F /  4.9 °C 35.7 °F /  2.1 °C 30.08in /  1018.5hPa Calm   1.0mph /  1.6km/h 82% 0.00in /  0mm
15:44 40.6 °F /  4.8 °C 35.5 °F /  1.9 °C 30.08in /  1018.5hPa Calm     82% 0.00in /  0mm
15:54 40.4 °F /  4.7 °C 35.3 °F /  1.8 °C 30.08in /  1018.5hPa Calm   1.0mph /  1.6km/h 82% 0.00in /  0mm
15:59 40.3 °F /  4.6 °C 35.2 °F /  1.8 °C 30.08in /  1018.5hPa Calm     82% 0.00in /  0mm
16:09 40.0 °F /  4.4 °C 35.3 °F /  1.8 °C 30.08in /  1018.5hPa Calm     83% 0.00in /  0mm
16:14 40.0 °F /  4.4 °C 35.3 °F /  1.8 °C 30.08in /  1018.5hPa Calm     83% 0.00in /  0mm
16:19 40.0 °F /  4.4 °C 35.3 °F /  1.8 °C 30.08in /  1018.5hPa Calm     83% 0.00in /  0mm
16:24 40.0 °F /  4.4 °C 35.3 °F /  1.8 °C 30.08in /  1018.5hPa Calm     83% 0.00in /  0mm
16:29 39.9 °F /  4.4 °C 35.2 °F /  1.8 °C 30.08in /  1018.5hPa SW 1.0mph /  1.6km/h 2.0mph /  3.2km/h 83% 0.00in /  0mm
16:34 39.9 °F /  4.4 °C 35.2 °F /  1.8 °C 30.08in /  1018.5hPa Calm   2.0mph /  3.2km/h 83% 0.00in /  0mm
16:39 39.8 °F /  4.3 °C 35.1 °F /  1.7 °C 30.08in /  1018.5hPa Calm   2.0mph /  3.2km/h 83% 0.00in /  0mm
16:44 39.7 °F /  4.3 °C 35.3 °F /  1.8 °C 30.08in /  1018.5hPa Calm   2.0mph /  3.2km/h 84% 0.00in /  0mm
16:49 39.8 °F /  4.3 °C 35.4 °F /  1.9 °C 30.08in /  1018.5hPa Calm   3.0mph /  4.8km/h 84% 0.00in /  0mm
16:54 39.6 °F /  4.2 °C 35.2 °F /  1.8 °C 30.08in /  1018.5hPa Calm   3.0mph /  4.8km/h 84% 0.00in /  0mm
17:04 39.3 °F /  4.1 °C 34.9 °F /  1.6 °C 30.08in /  1018.5hPa Calm     84% 0.00in /  0mm
17:09 39.3 °F /  4.1 °C 34.9 °F /  1.6 °C 30.09in /  1018.8hPa Calm     84% 0.00in /  0mm
17:14 39.2 °F /  4 °C 34.8 °F /  1.6 °C 30.09in /  1018.8hPa Calm     84% 0.00in /  0mm
17:19 39.2 °F /  4 °C 34.8 °F /  1.6 °C 30.08in /  1018.5hPa Calm     84% 0.00in /  0mm
17:24 39.2 °F /  4 °C 35.1 °F /  1.7 °C 30.08in /  1018.5hPa Calm     85% 0.00in /  0mm
17:29 39.3 °F /  4.1 °C 35.2 °F /  1.8 °C 30.09in /  1018.8hPa Calm   4.0mph /  6.4km/h 85% 0.00in /  0mm
17:34 39.2 °F /  4 °C 35.1 °F /  1.7 °C 30.09in /  1018.8hPa Calm   1.0mph /  1.6km/h 85% 0.00in /  0mm
17:39 39.0 °F /  3.9 °C 34.9 °F /  1.6 °C 30.09in /  1018.8hPa Calm   1.0mph /  1.6km/h 85% 0.00in /  0mm
17:44 38.9 °F /  3.8 °C 34.8 °F /  1.6 °C 30.09in /  1018.8hPa Calm     85% 0.00in /  0mm
17:54 38.9 °F /  3.8 °C 34.8 °F /  1.6 °C 30.09in /  1018.8hPa Calm   2.0mph /  3.2km/h 85% 0.00in /  0mm
18:04 38.8 °F /  3.8 °C 35.0 °F /  1.7 °C 30.09in /  1018.8hPa Calm     86% 0.00in /  0mm
18:09 38.7 °F /  3.7 °C 34.9 °F /  1.6 °C 30.09in /  1018.8hPa Calm     86% 0.00in /  0mm
18:14 38.6 °F /  3.7 °C 34.8 °F /  1.6 °C 30.09in /  1018.8hPa Calm     86% 0.00in /  0mm
18:19 38.5 °F /  3.6 °C 35.0 °F /  1.7 °C 30.09in /  1018.8hPa Calm     87% 0.00in /  0mm
18:24 38.4 °F /  3.6 °C 34.9 °F /  1.6 °C 30.09in /  1018.8hPa Calm     87% 0.00in /  0mm
18:29 38.3 °F /  3.5 °C 34.8 °F /  1.6 °C 30.09in /  1018.8hPa Calm     87% 0.00in /  0mm
18:34 38.3 °F /  3.5 °C 34.8 °F /  1.6 °C 30.09in /  1018.8hPa Calm     87% 0.00in /  0mm
18:39 38.3 °F /  3.5 °C 35.1 °F /  1.7 °C 30.09in /  1018.8hPa Calm     88% 0.00in /  0mm
18:44 38.2 °F /  3.4 °C 35.0 °F /  1.7 °C 30.09in /  1018.8hPa Calm     88% 0.00in /  0mm
18:49 38.2 °F /  3.4 °C 35.0 °F /  1.7 °C 30.09in /  1018.8hPa Calm     88% 0.00in /  0mm
18:54 38.1 °F /  3.4 °C 34.9 °F /  1.6 °C 30.09in /  1018.8hPa Calm     88% 0.00in /  0mm
18:59 38.2 °F /  3.4 °C 35.0 °F /  1.7 °C 30.09in /  1018.8hPa Calm     88% 0.00in /  0mm
19:04 38.1 °F /  3.4 °C 34.9 °F /  1.6 °C 30.09in /  1018.8hPa Calm     88% 0.00in /  0mm
19:09 38.0 °F /  3.3 °C 35.0 °F /  1.7 °C 30.09in /  1018.8hPa Calm   2.0mph /  3.2km/h 89% 0.00in /  0mm
19:14 38.0 °F /  3.3 °C 35.0 °F /  1.7 °C 30.09in /  1018.8hPa Calm     89% 0.00in /  0mm
19:19 37.9 °F /  3.3 °C 34.9 °F /  1.6 °C 30.09in /  1018.8hPa Calm     89% 0.00in /  0mm
19:24 37.8 °F /  3.2 °C 34.8 °F /  1.6 °C 30.09in /  1018.8hPa Calm     89% 0.00in /  0mm
19:29 37.7 °F /  3.2 °C 34.8 °F /  1.6 °C 30.09in /  1018.8hPa Calm     89% 0.00in /  0mm
19:34 37.7 °F /  3.2 °C 34.8 °F /  1.6 °C 30.09in /  1018.8hPa Calm     89% 0.00in /  0mm
19:39 37.6 °F /  3.1 °C 34.7 °F /  1.5 °C 30.09in /  1018.8hPa Calm     89% 0.00in /  0mm
19:44 37.7 °F /  3.2 °C 34.8 °F /  1.6 °C 30.09in /  1018.8hPa Calm     89% 0.00in /  0mm
19:49 37.7 °F /  3.2 °C 34.8 °F /  1.6 °C 30.09in /  1018.8hPa Calm     89% 0.00in /  0mm
19:54 37.7 °F /  3.2 °C 34.8 °F /  1.6 °C 30.09in /  1018.8hPa Calm     89% 0.00in /  0mm
19:59 37.7 °F /  3.2 °C 35.0 °F /  1.7 °C 30.09in /  1018.8hPa Calm     90% 0.00in /  0mm
20:04 37.7 °F /  3.2 °C 35.0 °F /  1.7 °C 30.09in /  1018.8hPa Calm     90% 0.00in /  0mm
20:09 37.7 °F /  3.2 °C 35.0 °F /  1.7 °C 30.09in /  1018.8hPa Calm     90% 0.00in /  0mm
20:14 37.7 °F /  3.2 °C 35.0 °F /  1.7 °C 30.09in /  1018.8hPa Calm     90% 0.00in /  0mm
20:19 37.7 °F /  3.2 °C 35.0 °F /  1.7 °C 30.08in /  1018.5hPa Calm     90% 0.00in /  0mm
20:24 37.6 °F /  3.1 °C 34.9 °F /  1.6 °C 30.08in /  1018.5hPa Calm     90% 0.00in /  0mm
20:29 37.5 °F /  3.1 °C 34.8 °F /  1.6 °C 30.08in /  1018.5hPa Calm     90% 0.00in /  0mm
20:34 37.4 °F /  3 °C 34.7 °F /  1.5 °C 30.09in /  1018.8hPa Calm     90% 0.00in /  0mm
20:39 37.3 °F /  2.9 °C 34.6 °F /  1.4 °C 30.09in /  1018.8hPa Calm     90% 0.00in /  0mm
20:44 37.1 °F /  2.8 °C 34.4 °F /  1.3 °C 30.09in /  1018.8hPa Calm     90% 0.00in /  0mm
20:49 37.1 °F /  2.8 °C 34.4 °F /  1.3 °C 30.09in /  1018.8hPa Calm     90% 0.00in /  0mm
20:54 37.0 °F /  2.8 °C 34.3 °F /  1.3 °C 30.09in /  1018.8hPa Calm     90% 0.00in /  0mm
20:59 37.0 °F /  2.8 °C 34.3 °F /  1.3 °C 30.09in /  1018.8hPa Calm     90% 0.00in /  0mm
21:04 37.0 °F /  2.8 °C 34.3 °F /  1.3 °C 30.09in /  1018.8hPa Calm     90% 0.00in /  0mm
21:09 36.9 °F /  2.7 °C 34.2 °F /  1.2 °C 30.09in /  1018.8hPa Calm     90% 0.00in /  0mm
21:14 36.8 °F /  2.7 °C 34.1 °F /  1.2 °C 30.10in /  1019.2hPa Calm     90% 0.00in /  0mm
21:19 36.8 °F /  2.7 °C 34.1 °F /  1.2 °C 30.09in /  1018.8hPa Calm     90% 0.00in /  0mm
21:24 36.8 °F /  2.7 °C 34.4 °F /  1.3 °C 30.09in /  1018.8hPa Calm     91% 0.00in /  0mm
21:29 36.8 °F /  2.7 °C 34.4 °F /  1.3 °C 30.09in /  1018.8hPa Calm     91% 0.00in /  0mm
21:34 36.9 °F /  2.7 °C 34.5 °F /  1.4 °C 30.09in /  1018.8hPa Calm     91% 0.00in /  0mm
21:39 37.1 °F /  2.8 °C 34.7 °F /  1.5 °C 30.09in /  1018.8hPa Calm     91% 0.00in /  0mm
21:44 37.1 °F /  2.8 °C 34.7 °F /  1.5 °C 30.08in /  1018.5hPa Calm     91% 0.00in /  0mm
21:49 37.1 °F /  2.8 °C 34.7 °F /  1.5 °C 30.09in /  1018.8hPa Calm     91% 0.00in /  0mm
21:54 37.2 °F /  2.9 °C 34.8 °F /  1.6 °C 30.09in /  1018.8hPa Calm     91% 0.00in /  0mm
21:59 37.2 °F /  2.9 °C 34.8 °F /  1.6 °C 30.09in /  1018.8hPa Calm     91% 0.00in /  0mm
22:09 37.2 °F /  2.9 °C 34.8 °F /  1.6 °C 30.08in /  1018.5hPa Calm     91% 0.00in /  0mm
22:19 37.1 °F /  2.8 °C 34.7 °F /  1.5 °C 30.08in /  1018.5hPa Calm     91% 0.00in /  0mm
22:29 37.1 °F /  2.8 °C 34.7 °F /  1.5 °C 30.08in /  1018.5hPa Calm     91% 0.00in /  0mm
22:44 37.2 °F /  2.9 °C 34.8 °F /  1.6 °C 30.09in /  1018.8hPa Calm     91% 0.01in /  0.25mm
22:49 37.2 °F /  2.9 °C 34.8 °F /  1.6 °C 30.09in /  1018.8hPa Calm     91% 0.01in /  0.25mm
22:54 37.1 °F /  2.8 °C 34.7 °F /  1.5 °C 30.09in /  1018.8hPa Calm     91% 0.01in /  0.25mm
22:59 36.9 °F /  2.7 °C 34.5 °F /  1.4 °C 30.09in /  1018.8hPa Calm     91% 0.01in /  0.25mm
23:04 37.1 °F /  2.8 °C 34.7 °F /  1.5 °C 30.08in /  1018.5hPa Calm     91% 0.01in /  0.25mm
23:14 37.3 °F /  2.9 °C 34.9 °F /  1.6 °C 30.08in /  1018.5hPa Calm     91% 0.01in /  0.25mm
23:19 37.4 °F /  3 °C 35.0 °F /  1.7 °C 30.08in /  1018.5hPa Calm     91% 0.01in /  0.25mm
23:24 37.5 °F /  3.1 °C 35.1 °F /  1.7 °C 30.08in /  1018.5hPa Calm     91% 0.01in /  0.25mm
23:29 37.5 °F /  3.1 °C 35.1 °F /  1.7 °C 30.08in /  1018.5hPa Calm     91% 0.01in /  0.25mm
23:44 37.6 °F /  3.1 °C 35.5 °F /  1.9 °C 30.08in /  1018.5hPa Calm     92% 0.00in /  0mm
23:49 37.6 °F /  3.1 °C 35.5 °F /  1.9 °C 30.08in /  1018.5hPa Calm     92% 0.00in /  0mm
23:54 37.5 °F /  3.1 °C 35.4 °F /  1.9 °C 30.08in /  1018.5hPa Calm     92% 0.00in /  0mm
23:59 37.6 °F /  3.1 °C 35.5 °F /  1.9 °C 30.08in /  1018.5hPa Calm     92% 0.00in /  0mm
Buffalo, New York, USA
Compliments of Weather Underground - 2.25 mb